sensor_id;sensor_type;location;lat;lon;timestamp;pressure;altitude;pressure_sealevel;temperature;humidity
37892;BME280;45797;47.466;9.486;2022-08-19T00:02:52;95466.88;;;20.81;68.10
37892;BME280;45797;47.466;9.486;2022-08-19T00:07:54;95448.88;;;20.83;67.85
37892;BME280;45797;47.466;9.486;2022-08-19T00:12:54;95443.56;;;20.83;68.35
37892;BME280;45797;47.466;9.486;2022-08-19T00:17:54;95445.88;;;20.87;67.58
37892;BME280;45797;47.466;9.486;2022-08-19T00:22:58;95442.66;;;20.91;67.77
37892;BME280;45797;47.466;9.486;2022-08-19T00:27:58;95451.38;;;20.85;67.76
37892;BME280;45797;47.466;9.486;2022-08-19T00:33:05;95453.94;;;20.93;67.64
37892;BME280;45797;47.466;9.486;2022-08-19T00:38:12;95458.09;;;20.96;67.68
37892;BME280;45797;47.466;9.486;2022-08-19T00:43:20;95460.09;;;20.94;67.80
37892;BME280;45797;47.466;9.486;2022-08-19T00:48:22;95452.03;;;20.87;67.89
37892;BME280;45797;47.466;9.486;2022-08-19T00:53:24;95454.69;;;20.87;67.98
37892;BME280;45797;47.466;9.486;2022-08-19T00:58:30;95455.97;;;20.91;67.77
37892;BME280;45797;47.466;9.486;2022-08-19T01:03:31;95447.97;;;20.91;67.76
37892;BME280;45797;47.466;9.486;2022-08-19T01:08:31;95446.63;;;20.95;68.00
37892;BME280;45797;47.466;9.486;2022-08-19T01:13:33;95449.91;;;20.97;68.34
37892;BME280;45797;47.466;9.486;2022-08-19T01:18:37;95453.31;;;20.91;68.17
37892;BME280;45797;47.466;9.486;2022-08-19T01:23:40;95443.41;;;20.85;68.11
37892;BME280;45797;47.466;9.486;2022-08-19T01:28:48;95446.69;;;20.87;68.16
37892;BME280;45797;47.466;9.486;2022-08-19T01:33:57;95449.28;;;20.95;67.87
37892;BME280;45797;47.466;9.486;2022-08-19T01:38:59;95452.09;;;20.94;67.78
37892;BME280;45797;47.466;9.486;2022-08-19T01:44:09;95458.00;;;21.04;67.47
37892;BME280;45797;47.466;9.486;2022-08-19T01:49:12;95444.22;;;21.00;67.94
37892;BME280;45797;47.466;9.486;2022-08-19T01:54:14;95433.56;;;21.00;68.06
37892;BME280;45797;47.466;9.486;2022-08-19T01:59:19;95435.50;;;21.06;67.91
37892;BME280;45797;47.466;9.486;2022-08-19T02:04:27;95426.50;;;21.07;67.90
37892;BME280;45797;47.466;9.486;2022-08-19T02:09:27;95424.38;;;21.03;67.98
37892;BME280;45797;47.466;9.486;2022-08-19T02:14:51;95435.13;;;21.09;67.81
37892;BME280;45797;47.466;9.486;2022-08-19T02:19:58;95424.66;;;21.08;68.41
37892;BME280;45797;47.466;9.486;2022-08-19T02:25:03;95411.53;;;21.06;68.04
37892;BME280;45797;47.466;9.486;2022-08-19T02:30:09;95411.34;;;21.08;68.10
37892;BME280;45797;47.466;9.486;2022-08-19T02:35:18;95416.66;;;21.08;67.98
37892;BME280;45797;47.466;9.486;2022-08-19T02:40:24;95408.84;;;21.06;68.11
37892;BME280;45797;47.466;9.486;2022-08-19T02:45:23;95405.91;;;21.01;68.09
37892;BME280;45797;47.466;9.486;2022-08-19T02:50:23;95410.22;;;21.02;68.12
37892;BME280;45797;47.466;9.486;2022-08-19T02:55:24;95412.88;;;21.02;68.36
37892;BME280;45797;47.466;9.486;2022-08-19T03:00:25;95406.94;;;21.00;68.42
37892;BME280;45797;47.466;9.486;2022-08-19T03:05:26;95403.63;;;20.98;68.57
37892;BME280;45797;47.466;9.486;2022-08-19T03:10:28;95400.31;;;20.96;68.93
37892;BME280;45797;47.466;9.486;2022-08-19T03:15:30;95409.34;;;20.95;68.70
37892;BME280;45797;47.466;9.486;2022-08-19T03:20:31;95415.47;;;20.96;68.69
37892;BME280;45797;47.466;9.486;2022-08-19T03:25:36;95406.94;;;21.00;68.71
37892;BME280;45797;47.466;9.486;2022-08-19T03:30:36;95405.66;;;20.96;68.30
37892;BME280;45797;47.466;9.486;2022-08-19T03:35:42;95405.91;;;21.01;68.45
37892;BME280;45797;47.466;9.486;2022-08-19T03:40:42;95401.97;;;20.97;68.93
37892;BME280;45797;47.466;9.486;2022-08-19T03:46:00;95383.44;;;21.04;67.95
37892;BME280;45797;47.466;9.486;2022-08-19T03:51:04;95371.28;;;21.01;68.75
37892;BME280;45797;47.466;9.486;2022-08-19T03:56:08;95379.91;;;21.03;68.86
37892;BME280;45797;47.466;9.486;2022-08-19T04:01:16;95371.56;;;21.06;68.71
37892;BME280;45797;47.466;9.486;2022-08-19T04:06:30;95372.00;;;21.10;68.37
37892;BME280;45797;47.466;9.486;2022-08-19T04:11:34;95361.53;;;21.08;68.42
37892;BME280;45797;47.466;9.486;2022-08-19T04:16:48;95372.47;;;21.14;68.40
37892;BME280;45797;47.466;9.486;2022-08-19T04:21:51;95387.16;;;21.09;68.58
37892;BME280;45797;47.466;9.486;2022-08-19T04:26:54;95384.69;;;21.08;68.73
37892;BME280;45797;47.466;9.486;2022-08-19T04:31:57;95403.97;;;21.10;68.75
37892;BME280;45797;47.466;9.486;2022-08-19T04:36:58;95405.00;;;21.09;68.67
37892;BME280;45797;47.466;9.486;2022-08-19T04:42:00;95413.63;;;21.11;68.76
37892;BME280;45797;47.466;9.486;2022-08-19T04:47:18;95416.47;;;21.09;68.80
37892;BME280;45797;47.466;9.486;2022-08-19T04:52:19;95409.50;;;21.08;68.62
37892;BME280;45797;47.466;9.486;2022-08-19T04:57:25;95410.41;;;21.16;68.67
37892;BME280;45797;47.466;9.486;2022-08-19T05:02:27;95432.06;;;21.13;68.58
37892;BME280;45797;47.466;9.486;2022-08-19T05:07:42;95448.16;;;21.19;68.59
37892;BME280;45797;47.466;9.486;2022-08-19T05:12:46;95437.88;;;21.16;68.76
37892;BME280;45797;47.466;9.486;2022-08-19T05:17:48;95443.41;;;21.15;68.57
37892;BME280;45797;47.466;9.486;2022-08-19T05:23:21;95441.00;;;21.20;68.17
37892;BME280;45797;47.466;9.486;2022-08-19T05:28:20;95447.72;;;21.16;68.62
37892;BME280;45797;47.466;9.486;2022-08-19T05:33:25;95453.13;;;21.22;68.76
37892;BME280;45797;47.466;9.486;2022-08-19T05:38:35;95458.91;;;21.26;68.49
37892;BME280;45797;47.466;9.486;2022-08-19T05:43:43;95449.81;;;21.20;68.56
37892;BME280;45797;47.466;9.486;2022-08-19T05:48:45;95449.56;;;21.15;68.81
37892;BME280;45797;47.466;9.486;2022-08-19T05:53:45;95447.25;;;21.12;69.28
37892;BME280;45797;47.466;9.486;2022-08-19T05:58:47;95441.09;;;21.11;69.27
37892;BME280;45797;47.466;9.486;2022-08-19T06:03:57;95447.72;;;21.16;68.89
37892;BME280;45797;47.466;9.486;2022-08-19T06:08:58;95448.44;;;21.09;69.14
37892;BME280;45797;47.466;9.486;2022-08-19T06:14:08;95445.59;;;21.11;69.49
37892;BME280;45797;47.466;9.486;2022-08-19T06:19:16;95431.72;;;21.16;69.23
37892;BME280;45797;47.466;9.486;2022-08-19T06:24:21;95438.25;;;21.13;69.60
37892;BME280;45797;47.466;9.486;2022-08-19T06:29:28;95430.16;;;21.06;69.21
37892;BME280;45797;47.466;9.486;2022-08-19T06:34:32;95446.50;;;21.03;69.47
37892;BME280;45797;47.466;9.486;2022-08-19T06:39:41;95441.19;;;21.03;69.30
37892;BME280;45797;47.466;9.486;2022-08-19T06:44:45;95449.53;;;21.00;69.62
37892;BME280;45797;47.466;9.486;2022-08-19T06:49:47;95463.69;;;21.01;69.82
37892;BME280;45797;47.466;9.486;2022-08-19T06:54:52;95465.81;;;21.05;69.78
37892;BME280;45797;47.466;9.486;2022-08-19T06:59:52;95474.16;;;21.02;69.40
37892;BME280;45797;47.466;9.486;2022-08-19T07:04:52;95475.16;;;21.01;69.54
37892;BME280;45797;47.466;9.486;2022-08-19T07:09:54;95465.16;;;21.03;69.83
37892;BME280;45797;47.466;9.486;2022-08-19T07:14:57;95459.09;;;21.09;69.73
37892;BME280;45797;47.466;9.486;2022-08-19T07:19:59;95473.44;;;21.08;69.60
37892;BME280;45797;47.466;9.486;2022-08-19T07:25:08;95475.19;;;21.16;69.17
37892;BME280;45797;47.466;9.486;2022-08-19T07:30:13;95474.06;;;21.10;69.38
37892;BME280;45797;47.466;9.486;2022-08-19T07:35:13;95476.19;;;21.00;70.12
37892;BME280;45797;47.466;9.486;2022-08-19T07:40:20;95475.16;;;21.01;69.46
37892;BME280;45797;47.466;9.486;2022-08-19T07:45:21;95462.03;;;20.85;70.17
37892;BME280;45797;47.466;9.486;2022-08-19T07:50:22;95459.28;;;20.78;70.38
37892;BME280;45797;47.466;9.486;2022-08-19T07:55:24;95470.81;;;20.71;70.78
37892;BME280;45797;47.466;9.486;2022-08-19T08:00:26;95468.97;;;20.57;70.68
37892;BME280;45797;47.466;9.486;2022-08-19T08:05:26;95455.38;;;20.51;71.04
37892;BME280;45797;47.466;9.486;2022-08-19T08:10:44;95453.25;;;20.47;71.03
37892;BME280;45797;47.466;9.486;2022-08-19T08:15:43;95498.34;;;20.40;71.76
37892;BME280;45797;47.466;9.486;2022-08-19T08:20:48;95497.63;;;20.46;71.24
37892;BME280;45797;47.466;9.486;2022-08-19T08:25:48;95504.91;;;20.52;71.14
37892;BME280;45797;47.466;9.486;2022-08-19T08:30:50;95504.28;;;20.50;71.34
37892;BME280;45797;47.466;9.486;2022-08-19T08:35:56;95511.56;;;20.57;71.29
37892;BME280;45797;47.466;9.486;2022-08-19T08:41:11;95514.50;;;20.62;71.49
37892;BME280;45797;47.466;9.486;2022-08-19T08:46:34;95518.28;;;20.67;70.95
37892;BME280;45797;47.466;9.486;2022-08-19T08:51:44;95531.41;;;20.69;70.84
37892;BME280;45797;47.466;9.486;2022-08-19T08:56:49;95530.41;;;20.70;71.50
37892;BME280;45797;47.466;9.486;2022-08-19T09:01:51;95530.78;;;20.67;71.23
37892;BME280;45797;47.466;9.486;2022-08-19T09:07:19;95536.84;;;20.75;71.33
37892;BME280;45797;47.466;9.486;2022-08-19T09:12:53;95536.00;;;20.75;70.91
37892;BME280;45797;47.466;9.486;2022-08-19T09:18:00;95544.16;;;20.73;71.56
37892;BME280;45797;47.466;9.486;2022-08-19T09:23:01;95551.34;;;20.73;71.62
37892;BME280;45797;47.466;9.486;2022-08-19T09:28:02;95549.69;;;20.72;71.31
37892;BME280;45797;47.466;9.486;2022-08-19T09:33:08;95554.38;;;20.70;71.09
37892;BME280;45797;47.466;9.486;2022-08-19T09:38:08;95569.06;;;20.66;71.64
37892;BME280;45797;47.466;9.486;2022-08-19T09:43:13;95575.28;;;20.73;71.28
37892;BME280;45797;47.466;9.486;2022-08-19T09:48:14;95571.72;;;20.66;71.98
37892;BME280;45797;47.466;9.486;2022-08-19T09:53:14;95572.03;;;20.63;71.85
37892;BME280;45797;47.466;9.486;2022-08-19T09:58:27;95575.84;;;20.68;71.66
37892;BME280;45797;47.466;9.486;2022-08-19T10:03:36;95579.69;;;20.66;71.26
37892;BME280;45797;47.466;9.486;2022-08-19T10:08:40;95571.88;;;20.64;71.75
37892;BME280;45797;47.466;9.486;2022-08-19T10:13:47;95572.00;;;20.71;71.58
37892;BME280;45797;47.466;9.486;2022-08-19T10:18:49;95577.69;;;20.68;71.53
37892;BME280;45797;47.466;9.486;2022-08-19T10:23:52;95582.34;;;20.66;72.00
37892;BME280;45797;47.466;9.486;2022-08-19T10:28:57;95585.47;;;20.69;71.94
37892;BME280;45797;47.466;9.486;2022-08-19T10:34:05;95582.19;;;20.67;71.47
37892;BME280;45797;47.466;9.486;2022-08-19T10:39:07;95589.72;;;20.56;71.89
37892;BME280;45797;47.466;9.486;2022-08-19T10:44:13;95601.69;;;20.60;71.79
37892;BME280;45797;47.466;9.486;2022-08-19T10:49:16;95599.91;;;20.52;71.91
37892;BME280;45797;47.466;9.486;2022-08-19T10:54:18;95607.28;;;20.65;71.71
37892;BME280;45797;47.466;9.486;2022-08-19T10:59:28;95598.66;;;20.63;71.64
37892;BME280;45797;47.466;9.486;2022-08-19T11:04:28;95597.06;;;20.53;72.02
37892;BME280;45797;47.466;9.486;2022-08-19T11:09:28;95589.72;;;20.56;71.97
37892;BME280;45797;47.466;9.486;2022-08-19T11:14:29;95591.75;;;20.53;71.86
37892;BME280;45797;47.466;9.486;2022-08-19T11:19:32;95589.91;;;20.54;71.98
37892;BME280;45797;47.466;9.486;2022-08-19T11:24:32;95592.25;;;20.57;71.57
37892;BME280;45797;47.466;9.486;2022-08-19T11:29:38;95603.16;;;20.62;71.49
37892;BME280;45797;47.466;9.486;2022-08-19T11:34:41;95601.06;;;20.58;71.63
37892;BME280;45797;47.466;9.486;2022-08-19T11:39:43;95601.09;;;20.49;72.22
37892;BME280;45797;47.466;9.486;2022-08-19T11:44:42;95591.97;;;20.44;72.18
37892;BME280;45797;47.466;9.486;2022-08-19T11:49:42;95592.31;;;20.41;71.92
37892;BME280;45797;47.466;9.486;2022-08-19T11:54:43;95602.13;;;20.40;72.11
37892;BME280;45797;47.466;9.486;2022-08-19T11:59:51;95594.13;;;20.48;71.75
37892;BME280;45797;47.466;9.486;2022-08-19T12:04:56;95605.28;;;20.44;71.89
37892;BME280;45797;47.466;9.486;2022-08-19T12:09:58;95609.59;;;20.45;71.97
37892;BME280;45797;47.466;9.486;2022-08-19T12:14:59;95609.09;;;20.49;71.83
37892;BME280;45797;47.466;9.486;2022-08-19T12:20:00;95610.56;;;20.52;71.74
37892;BME280;45797;47.466;9.486;2022-08-19T12:25:03;95617.84;;;20.58;71.46
37892;BME280;45797;47.466;9.486;2022-08-19T12:30:07;95633.00;;;20.58;71.79
37892;BME280;45797;47.466;9.486;2022-08-19T12:35:08;95627.66;;;20.58;71.54
37892;BME280;45797;47.466;9.486;2022-08-19T12:40:10;95628.81;;;20.55;71.64
37892;BME280;45797;47.466;9.486;2022-08-19T12:45:13;95633.50;;;20.53;71.55
37892;BME280;45797;47.466;9.486;2022-08-19T12:50:13;95616.06;;;20.50;71.67
37892;BME280;45797;47.466;9.486;2022-08-19T12:55:14;95630.38;;;20.49;71.87
37892;BME280;45797;47.466;9.486;2022-08-19T13:00:19;95617.06;;;20.49;71.68
37892;BME280;45797;47.466;9.486;2022-08-19T13:05:24;95642.41;;;20.37;72.43
37892;BME280;45797;47.466;9.486;2022-08-19T13:10:29;95654.38;;;20.33;72.04
37892;BME280;45797;47.466;9.486;2022-08-19T13:15:34;95652.03;;;20.38;71.74
37892;BME280;45797;47.466;9.486;2022-08-19T13:20:37;95662.19;;;20.35;72.02
37892;BME280;45797;47.466;9.486;2022-08-19T13:25:44;95672.66;;;20.36;72.27
37892;BME280;45797;47.466;9.486;2022-08-19T13:30:47;95672.00;;;20.34;72.17
37892;BME280;45797;47.466;9.486;2022-08-19T13:36:06;95685.00;;;20.29;71.81
37892;BME280;45797;47.466;9.486;2022-08-19T13:41:07;95696.34;;;20.23;72.36
37892;BME280;45797;47.466;9.486;2022-08-19T13:46:12;95680.00;;;20.26;72.24
37892;BME280;45797;47.466;9.486;2022-08-19T13:51:16;95693.31;;;20.26;71.82
37892;BME280;45797;47.466;9.486;2022-08-19T13:56:20;95689.63;;;20.35;72.03
37892;BME280;45797;47.466;9.486;2022-08-19T14:01:23;95693.59;;;20.39;72.05
37892;BME280;45797;47.466;9.486;2022-08-19T14:06:29;95687.78;;;20.44;72.07
37892;BME280;45797;47.466;9.486;2022-08-19T14:11:29;95690.78;;;20.41;72.05
37892;BME280;45797;47.466;9.486;2022-08-19T14:16:30;95707.59;;;20.33;72.19
37892;BME280;45797;47.466;9.486;2022-08-19T14:21:31;95708.13;;;20.29;72.33
37892;BME280;45797;47.466;9.486;2022-08-19T14:26:31;95695.78;;;20.27;72.42
37892;BME280;45797;47.466;9.486;2022-08-19T14:31:31;95720.44;;;20.30;72.20
37892;BME280;45797;47.466;9.486;2022-08-19T14:36:31;95703.47;;;20.31;72.07
37892;BME280;45797;47.466;9.486;2022-08-19T14:41:40;95704.25;;;20.39;71.93
37892;BME280;45797;47.466;9.486;2022-08-19T14:46:48;95699.56;;;20.41;71.38
37892;BME280;45797;47.466;9.486;2022-08-19T14:51:54;95713.88;;;20.40;72.01
37892;BME280;45797;47.466;9.486;2022-08-19T14:56:55;95708.56;;;20.40;71.83
37892;BME280;45797;47.466;9.486;2022-08-19T15:01:56;95727.53;;;20.45;71.46
37892;BME280;45797;47.466;9.486;2022-08-19T15:07:03;95730.16;;;20.53;71.46
37892;BME280;45797;47.466;9.486;2022-08-19T15:12:12;95727.81;;;20.59;71.52
37892;BME280;45797;47.466;9.486;2022-08-19T15:17:14;95739.78;;;20.54;71.12
37892;BME280;45797;47.466;9.486;2022-08-19T15:22:14;95740.47;;;20.57;71.43
37892;BME280;45797;47.466;9.486;2022-08-19T15:27:16;95750.75;;;20.60;71.72
37892;BME280;45797;47.466;9.486;2022-08-19T15:32:16;95756.09;;;20.60;71.75
37892;BME280;45797;47.466;9.486;2022-08-19T15:37:22;95766.19;;;20.64;71.85
37892;BME280;45797;47.466;9.486;2022-08-19T15:42:23;95772.25;;;20.58;71.72
37892;BME280;45797;47.466;9.486;2022-08-19T15:47:32;95779.50;;;20.64;71.31
37892;BME280;45797;47.466;9.486;2022-08-19T15:52:34;95782.88;;;20.58;71.87
37892;BME280;45797;47.466;9.486;2022-08-19T15:57:39;95784.38;;;20.61;71.66
37892;BME280;45797;47.466;9.486;2022-08-19T16:02:58;95774.41;;;20.54;71.39
37892;BME280;45797;47.466;9.486;2022-08-19T16:08:16;95778.41;;;20.50;71.62
37892;BME280;45797;47.466;9.486;2022-08-19T16:13:15;95776.41;;;20.52;71.80
37892;BME280;45797;47.466;9.486;2022-08-19T16:18:16;95778.41;;;20.50;71.77
37892;BME280;45797;47.466;9.486;2022-08-19T16:23:16;95781.25;;;20.49;71.80
37892;BME280;45797;47.466;9.486;2022-08-19T16:28:17;95791.41;;;20.45;72.12
37892;BME280;45797;47.466;9.486;2022-08-19T16:33:19;95788.72;;;20.45;71.83
37892;BME280;45797;47.466;9.486;2022-08-19T16:38:20;95804.38;;;20.40;72.04
37892;BME280;45797;47.466;9.486;2022-08-19T16:43:21;95803.88;;;20.37;71.73
37892;BME280;45797;47.466;9.486;2022-08-19T16:48:29;95786.75;;;20.39;71.94
37892;BME280;45797;47.466;9.486;2022-08-19T16:53:30;95791.09;;;20.32;71.92
37892;BME280;45797;47.466;9.486;2022-08-19T16:58:36;95800.56;;;20.35;71.73
37892;BME280;45797;47.466;9.486;2022-08-19T17:03:47;95801.56;;;20.34;72.03
37892;BME280;45797;47.466;9.486;2022-08-19T17:08:53;95799.25;;;20.31;72.10
37892;BME280;45797;47.466;9.486;2022-08-19T17:14:01;95793.75;;;20.32;71.66
37892;BME280;45797;47.466;9.486;2022-08-19T17:19:05;95805.41;;;20.31;71.55
37892;BME280;45797;47.466;9.486;2022-08-19T17:24:07;95803.09;;;20.28;71.60
37892;BME280;45797;47.466;9.486;2022-08-19T17:29:07;95796.25;;;20.25;71.76
37892;BME280;45797;47.466;9.486;2022-08-19T17:34:15;95791.44;;;20.29;nan
37892;BME280;45797;47.466;9.486;2022-08-19T17:39:17;95783.28;;;20.22;71.79
37892;BME280;45797;47.466;9.486;2022-08-19T17:44:18;95780.97;;;20.19;71.42
37892;BME280;45797;47.466;9.486;2022-08-19T17:49:26;95785.97;;;20.22;71.50
37892;BME280;45797;47.466;9.486;2022-08-19T17:54:35;95788.78;;;20.21;71.39
37892;BME280;45797;47.466;9.486;2022-08-19T17:59:42;95790.78;;;20.19;71.47
37892;BME280;45797;47.466;9.486;2022-08-19T18:04:43;95827.53;;;20.15;71.91
37892;BME280;45797;47.466;9.486;2022-08-19T18:09:44;95825.53;;;20.17;71.22
37892;BME280;45797;47.466;9.486;2022-08-19T18:14:44;95823.88;;;20.16;71.59
37892;BME280;45797;47.466;9.486;2022-08-19T18:19:46;95822.38;;;20.14;71.54
37892;BME280;45797;47.466;9.486;2022-08-19T18:24:46;95813.94;;;20.10;71.59
37892;BME280;45797;47.466;9.486;2022-08-19T18:29:45;95812.25;;;20.09;71.61
37892;BME280;45797;47.466;9.486;2022-08-19T18:34:50;95824.22;;;20.13;71.72
37892;BME280;45797;47.466;9.486;2022-08-19T18:39:52;95819.25;;;20.10;71.40
37892;BME280;45797;47.466;9.486;2022-08-19T18:45:12;95815.06;;;20.08;71.23
37892;BME280;45797;47.466;9.486;2022-08-19T18:50:32;95820.91;;;20.11;71.35
37892;BME280;45797;47.466;9.486;2022-08-19T18:55:32;95818.41;;;20.10;71.28
37892;BME280;45797;47.466;9.486;2022-08-19T19:00:32;95822.03;;;20.09;71.54
37892;BME280;45797;47.466;9.486;2022-08-19T19:05:35;95823.56;;;20.11;71.22
37892;BME280;45797;47.466;9.486;2022-08-19T19:10:36;95821.38;;;20.15;71.05
37892;BME280;45797;47.466;9.486;2022-08-19T19:15:36;95823.38;;;20.21;70.98
37892;BME280;45797;47.466;9.486;2022-08-19T19:20:40;95820.53;;;20.31;70.77
37892;BME280;45797;47.466;9.486;2022-08-19T19:25:41;95823.66;;;20.34;70.55
37892;BME280;45797;47.466;9.486;2022-08-19T19:30:42;95815.00;;;20.40;70.20
37892;BME280;45797;47.466;9.486;2022-08-19T19:35:42;95831.31;;;20.45;70.46
37892;BME280;45797;47.466;9.486;2022-08-19T19:40:45;95839.63;;;20.50;70.08
37892;BME280;45797;47.466;9.486;2022-08-19T19:45:47;95841.28;;;20.51;69.97
37892;BME280;45797;47.466;9.486;2022-08-19T19:50:48;95839.94;;;20.56;70.07
37892;BME280;45797;47.466;9.486;2022-08-19T19:55:50;95831.94;;;20.56;69.55
37892;BME280;45797;47.466;9.486;2022-08-19T20:00:54;95832.63;;;20.58;69.83
37892;BME280;45797;47.466;9.486;2022-08-19T20:05:54;95852.94;;;20.59;69.75
37892;BME280;45797;47.466;9.486;2022-08-19T20:11:00;95853.91;;;20.66;69.32
37892;BME280;45797;47.466;9.486;2022-08-19T20:16:26;95856.38;;;20.75;69.21
37892;BME280;45797;47.466;9.486;2022-08-19T20:21:29;95857.41;;;20.66;69.80
37892;BME280;45797;47.466;9.486;2022-08-19T20:26:43;95870.84;;;20.73;69.73
37892;BME280;45797;47.466;9.486;2022-08-19T20:31:46;95869.00;;;20.73;69.17
37892;BME280;45797;47.466;9.486;2022-08-19T20:36:47;95891.00;;;20.75;69.03
37892;BME280;45797;47.466;9.486;2022-08-19T20:41:49;95894.13;;;20.79;68.87
37892;BME280;45797;47.466;9.486;2022-08-19T20:46:49;95890.28;;;20.81;68.90
37892;BME280;45797;47.466;9.486;2022-08-19T20:51:49;95888.97;;;20.86;69.00
37892;BME280;45797;47.466;9.486;2022-08-19T20:56:49;95879.78;;;20.88;68.86
37892;BME280;45797;47.466;9.486;2022-08-19T21:01:59;95874.75;;;20.93;68.63
37892;BME280;45797;47.466;9.486;2022-08-19T21:07:00;95861.81;;;20.82;69.06
37892;BME280;45797;47.466;9.486;2022-08-19T21:12:05;95863.16;;;20.86;68.78
37892;BME280;45797;47.466;9.486;2022-08-19T21:17:05;95864.16;;;20.85;68.39
37892;BME280;45797;47.466;9.486;2022-08-19T21:22:06;95876.78;;;20.91;68.48
37892;BME280;45797;47.466;9.486;2022-08-19T21:27:10;95881.72;;;21.02;68.22
37892;BME280;45797;47.466;9.486;2022-08-19T21:32:18;95883.69;;;21.08;67.98
37892;BME280;45797;47.466;9.486;2022-08-19T21:37:18;95885.72;;;21.06;68.05
37892;BME280;45797;47.466;9.486;2022-08-19T21:42:18;95903.00;;;21.10;67.89
37892;BME280;45797;47.466;9.486;2022-08-19T21:47:23;95902.31;;;21.17;68.08
37892;BME280;45797;47.466;9.486;2022-08-19T21:52:24;95898.19;;;21.14;67.76
37892;BME280;45797;47.466;9.486;2022-08-19T21:57:35;95910.97;;;21.19;67.77
37892;BME280;45797;47.466;9.486;2022-08-19T22:02:37;95904.50;;;21.13;67.61
37892;BME280;45797;47.466;9.486;2022-08-19T22:07:39;95913.81;;;21.17;67.50
37892;BME280;45797;47.466;9.486;2022-08-19T22:12:43;95908.94;;;21.21;67.44
37892;BME280;45797;47.466;9.486;2022-08-19T22:17:44;95911.63;;;21.21;67.13
37892;BME280;45797;47.466;9.486;2022-08-19T22:22:58;95899.81;;;21.23;67.27
37892;BME280;45797;47.466;9.486;2022-08-19T22:28:02;95912.28;;;21.23;67.19
37892;BME280;45797;47.466;9.486;2022-08-19T22:33:05;95901.47;;;21.24;66.73
37892;BME280;45797;47.466;9.486;2022-08-19T22:38:07;95913.63;;;21.27;67.22
37892;BME280;45797;47.466;9.486;2022-08-19T22:43:14;95917.59;;;21.31;66.81
37892;BME280;45797;47.466;9.486;2022-08-19T22:48:22;95918.41;;;21.31;66.73
37892;BME280;45797;47.466;9.486;2022-08-19T22:53:25;95915.94;;;21.30;66.84
37892;BME280;45797;47.466;9.486;2022-08-19T22:58:26;95913.94;;;21.24;66.82
37892;BME280;45797;47.466;9.486;2022-08-19T23:03:27;95918.97;;;21.27;66.62
37892;BME280;45797;47.466;9.486;2022-08-19T23:08:27;95922.28;;;21.29;66.77
37892;BME280;45797;47.466;9.486;2022-08-19T23:13:28;95908.94;;;21.21;66.43
37892;BME280;45797;47.466;9.486;2022-08-19T23:18:31;95910.59;;;21.22;66.66
37892;BME280;45797;47.466;9.486;2022-08-19T23:23:32;95912.28;;;21.23;66.29
37892;BME280;45797;47.466;9.486;2022-08-19T23:28:35;95911.63;;;21.29;66.47
37892;BME280;45797;47.466;9.486;2022-08-19T23:33:55;95915.59;;;21.25;66.54
37892;BME280;45797;47.466;9.486;2022-08-19T23:38:54;95912.44;;;21.21;66.54
37892;BME280;45797;47.466;9.486;2022-08-19T23:44:01;95915.94;;;21.30;66.48
37892;BME280;45797;47.466;9.486;2022-08-19T23:49:07;95919.25;;;21.32;66.11
37892;BME280;45797;47.466;9.486;2022-08-19T23:54:12;95914.94;;;21.31;66.56
37892;BME280;45797;47.466;9.486;2022-08-19T23:59:20;95911.25;;;21.32;66.05
